Cheetham Hill, United Kingdom
Current Conditions -  °F | °C
As of 8:50 AM on Friday 28 Nov 2014 (Local Time) from EGCC Reporting Station
Broken Clouds Broken Clouds  
Wind Chill: 50°   Ceiling: 1800
Heat Index: 50°   Visibility: 4mi
Dew Point: 48°   Wind: 7mph
Humidity: 94%   Direction: 100°E
Pressure: 29.65"   Gusts: NA
Location:  53.5°N, 2.24°W
Report Text: EGCC 280850Z 10006KT 7000 SCT013 BKN018 10/09 Q1004 TEMPO BKN013
Loading
Personal Weather Stations






























Interactive Weather Map New forecast layout! Learn more

10-Day Weather Forecast

Advertisements
Track Severe Weather on mobile